Airfield :
LOGIN :

Register | Disclaimer

   EN    FR    IT 

 










Legend :    VFR   Marginal VFR   IFR   Intensive IFR   Very Intensive IFR
Visi :
Ceiling :
>= 8 km
>= 3000ft
5 to 8 km
1000 to 3000 ft
1500m to 5 km
500 to 1000 ft
800 to 1500m
200 to 500 ft
< 800m
< 200 ft
Symbols :   Thunderstorms  Fog  Heavy snow  Heavy precipitations  Wind > 20 kt
SIGMETs :     Misc.  Thunderstorms  Icing  Turbulence  Mountain Waves  Volcanic Ashes






- Airport Elevation : 2595 ft
- IATA code : SLM


LESA - Salamanca Matacan

CURRENT METAR :
  • 281330Z 28007KT 220V330 9999 SCT025 22/14 Q1023

EXPIRED METARs :
  • 281300Z 28006KT 230V020 9999 FEW018 SCT027 21/15 Q1023
  • 281230Z 29005KT 230V340 9999 FEW017 SCT028 21/14 Q1023
  • 281200Z 30004KT 260V340 9999 SCT017 19/15 Q1023
  • 281130Z 30003KT 260V020 9999 SCT017 SCT032 19/15 Q1023
  • 281100Z 31004KT 280V010 9999 FEW012 SCT023 18/15 Q1023

TAF TAF LESA
Valid from the 28 at 09:00 until the 29 at 09:00 UTC


280800Z 2809/2909 VRB04KT CAVOK TX22/2814Z TN06/2906Z
PROB40
TEMPO 2903/2909 3000 BR BKN007
PROB30
TEMPO 2904/2907 0200 FG VV002



MET'MAP, your aeronautical weather chart ! - Copyright ORBIFLY December 2007 - Disclaimer

ORBIFLY MET'MAP TEAM :

Programming & Development : Alexandra Zaïnal
Concept & original design : Baudouin d'Aumeries
Assistance for programming : Marc-Olivier Méhu
Technical & hardware support : Manuel Goepfert

Contact : metmap@orbifly.com




SOURCES & CREDITS :

   NOAA